Voronez, Russia
Current Conditions -  °F | °C
As of 4:00 PM on Monday 20 Oct 2014 (Local Time) from UUOO Reporting Station
Light Rain Light Rain  
Wind Chill: 40°   Ceiling: 2200
Heat Index: 46°   Visibility: 6mi
Dew Point: 43°   Wind: 13mph
Humidity: 87%   Direction: 240°WSW
Pressure: 29.53"   Gusts: 20mph
Location:  51.71°N, 39.27°E
Report Text: UUOO 201300Z 24006G09MPS 9000 -RA OVC022 08/06 Q1000 NOSIG RMK 12290155
Loading
Personal Weather Stations






























Interactive Weather Map
Tropical Storm Tracking
New forecast layout! Learn more

10-Day Weather Forecast

Advertisements
Track Severe Weather on mobile